sensor_id;sensor_type;location;lat;lon;timestamp;temperature;humidity
21167;DHT22;10741;52.272;9.580;2023-03-01T00:01:53;-3.20;99.90
21167;DHT22;10741;52.272;9.580;2023-03-01T00:04:18;-3.20;99.90
21167;DHT22;10741;52.272;9.580;2023-03-01T00:06:44;-3.20;99.90
21167;DHT22;10741;52.272;9.580;2023-03-01T00:09:14;-3.20;99.90
21167;DHT22;10741;52.272;9.580;2023-03-01T00:11:40;-3.20;99.90
21167;DHT22;10741;52.272;9.580;2023-03-01T00:14:06;-3.20;99.90
21167;DHT22;10741;52.272;9.580;2023-03-01T00:16:40;-3.10;99.90
21167;DHT22;10741;52.272;9.580;2023-03-01T00:19:12;-3.00;99.90
21167;DHT22;10741;52.272;9.580;2023-03-01T00:21:38;-3.00;99.90
21167;DHT22;10741;52.272;9.580;2023-03-01T00:24:04;-3.00;99.90
21167;DHT22;10741;52.272;9.580;2023-03-01T00:26:30;-3.00;99.90
21167;DHT22;10741;52.272;9.580;2023-03-01T00:28:57;-3.00;99.90
21167;DHT22;10741;52.272;9.580;2023-03-01T00:31:27;-3.10;99.90
21167;DHT22;10741;52.272;9.580;2023-03-01T00:33:56;-3.10;99.90
21167;DHT22;10741;52.272;9.580;2023-03-01T00:36:24;-3.20;99.90
21167;DHT22;10741;52.272;9.580;2023-03-01T00:38:50;-3.20;99.90
21167;DHT22;10741;52.272;9.580;2023-03-01T00:41:17;-3.20;99.90
21167;DHT22;10741;52.272;9.580;2023-03-01T00:43:44;-3.20;99.90
21167;DHT22;10741;52.272;9.580;2023-03-01T00:46:13;-3.30;99.90
21167;DHT22;10741;52.272;9.580;2023-03-01T00:48:39;-3.40;99.90
21167;DHT22;10741;52.272;9.580;2023-03-01T00:53:41;-3.40;99.90
21167;DHT22;10741;52.272;9.580;2023-03-01T00:56:09;-3.40;99.90
21167;DHT22;10741;52.272;9.580;2023-03-01T00:58:35;-3.50;99.90
21167;DHT22;10741;52.272;9.580;2023-03-01T01:01:10;-3.40;99.90
21167;DHT22;10741;52.272;9.580;2023-03-01T01:03:45;-3.50;99.90
21167;DHT22;10741;52.272;9.580;2023-03-01T01:06:16;-3.50;99.90
21167;DHT22;10741;52.272;9.580;2023-03-01T01:08:42;-3.50;99.90
21167;DHT22;10741;52.272;9.580;2023-03-01T01:11:12;-3.50;99.90
21167;DHT22;10741;52.272;9.580;2023-03-01T01:13:39;-3.50;99.90
21167;DHT22;10741;52.272;9.580;2023-03-01T01:16:06;-3.60;99.90
21167;DHT22;10741;52.272;9.580;2023-03-01T01:18:32;-3.60;99.90
21167;DHT22;10741;52.272;9.580;2023-03-01T01:21:04;-3.60;99.90
21167;DHT22;10741;52.272;9.580;2023-03-01T01:23:29;-3.60;99.90
21167;DHT22;10741;52.272;9.580;2023-03-01T01:25:55;-3.70;99.90
21167;DHT22;10741;52.272;9.580;2023-03-01T01:28:21;-3.70;99.90
21167;DHT22;10741;52.272;9.580;2023-03-01T01:30:47;-3.70;99.90
21167;DHT22;10741;52.272;9.580;2023-03-01T01:33:12;-3.70;99.90
21167;DHT22;10741;52.272;9.580;2023-03-01T01:35:38;-3.70;99.90
21167;DHT22;10741;52.272;9.580;2023-03-01T01:38:04;-3.70;99.90
21167;DHT22;10741;52.272;9.580;2023-03-01T01:40:30;-3.70;99.90
21167;DHT22;10741;52.272;9.580;2023-03-01T01:42:55;-3.80;99.90
21167;DHT22;10741;52.272;9.580;2023-03-01T01:45:34;-3.80;99.90
21167;DHT22;10741;52.272;9.580;2023-03-01T01:48:06;-3.80;99.90
21167;DHT22;10741;52.272;9.580;2023-03-01T01:50:39;-3.80;99.90
21167;DHT22;10741;52.272;9.580;2023-03-01T01:53:10;-3.90;99.90
21167;DHT22;10741;52.272;9.580;2023-03-01T01:55:42;-3.90;99.90
21167;DHT22;10741;52.272;9.580;2023-03-01T01:58:11;-3.90;99.90
21167;DHT22;10741;52.272;9.580;2023-03-01T02:00:38;-4.00;99.90
21167;DHT22;10741;52.272;9.580;2023-03-01T02:03:10;-4.00;99.90
21167;DHT22;10741;52.272;9.580;2023-03-01T02:05:49;-4.00;99.90
21167;DHT22;10741;52.272;9.580;2023-03-01T02:08:19;-4.10;99.90
21167;DHT22;10741;52.272;9.580;2023-03-01T02:10:46;-4.10;99.90
21167;DHT22;10741;52.272;9.580;2023-03-01T02:13:12;-4.10;99.90
21167;DHT22;10741;52.272;9.580;2023-03-01T02:15:39;-4.10;99.90
21167;DHT22;10741;52.272;9.580;2023-03-01T02:18:07;-4.10;99.90
21167;DHT22;10741;52.272;9.580;2023-03-01T02:23:14;-4.10;99.90
21167;DHT22;10741;52.272;9.580;2023-03-01T02:26:09;-4.10;99.90
21167;DHT22;10741;52.272;9.580;2023-03-01T02:28:40;-4.10;99.90
21167;DHT22;10741;52.272;9.580;2023-03-01T02:31:09;-4.10;99.90
21167;DHT22;10741;52.272;9.580;2023-03-01T02:33:53;-4.00;99.90
21167;DHT22;10741;52.272;9.580;2023-03-01T02:36:22;-4.10;99.90
21167;DHT22;10741;52.272;9.580;2023-03-01T02:38:53;-4.10;99.90
21167;DHT22;10741;52.272;9.580;2023-03-01T02:41:20;-4.10;99.90
21167;DHT22;10741;52.272;9.580;2023-03-01T02:43:47;-4.10;99.90
21167;DHT22;10741;52.272;9.580;2023-03-01T02:46:16;-4.10;99.90
21167;DHT22;10741;52.272;9.580;2023-03-01T02:48:45;-4.10;99.90
21167;DHT22;10741;52.272;9.580;2023-03-01T02:51:26;-4.10;99.90
21167;DHT22;10741;52.272;9.580;2023-03-01T02:56:38;-4.10;99.90
21167;DHT22;10741;52.272;9.580;2023-03-01T02:59:04;-4.10;99.90
21167;DHT22;10741;52.272;9.580;2023-03-01T03:01:30;-4.10;99.90
21167;DHT22;10741;52.272;9.580;2023-03-01T03:04:07;-4.10;99.90
21167;DHT22;10741;52.272;9.580;2023-03-01T03:06:33;-4.10;99.90
21167;DHT22;10741;52.272;9.580;2023-03-01T03:08:59;-4.10;99.90
21167;DHT22;10741;52.272;9.580;2023-03-01T03:11:26;-4.10;99.90
21167;DHT22;10741;52.272;9.580;2023-03-01T03:13:51;-4.10;99.90
21167;DHT22;10741;52.272;9.580;2023-03-01T03:16:18;-4.10;99.90
21167;DHT22;10741;52.272;9.580;2023-03-01T03:18:44;-4.10;99.90
21167;DHT22;10741;52.272;9.580;2023-03-01T03:21:11;-4.10;99.90
21167;DHT22;10741;52.272;9.580;2023-03-01T03:23:37;-4.10;99.90
21167;DHT22;10741;52.272;9.580;2023-03-01T03:26:04;-4.10;99.90
21167;DHT22;10741;52.272;9.580;2023-03-01T03:28:34;-4.10;99.90
21167;DHT22;10741;52.272;9.580;2023-03-01T03:31:01;-4.20;99.90
21167;DHT22;10741;52.272;9.580;2023-03-01T03:33:32;-4.20;99.90
21167;DHT22;10741;52.272;9.580;2023-03-01T03:35:58;-4.20;99.90
21167;DHT22;10741;52.272;9.580;2023-03-01T03:38:24;-4.20;99.90
21167;DHT22;10741;52.272;9.580;2023-03-01T03:41:04;-4.30;99.90
21167;DHT22;10741;52.272;9.580;2023-03-01T03:43:32;-4.30;99.90
21167;DHT22;10741;52.272;9.580;2023-03-01T03:45:58;-4.30;99.90
21167;DHT22;10741;52.272;9.580;2023-03-01T03:48:25;-4.30;99.90
21167;DHT22;10741;52.272;9.580;2023-03-01T03:50:56;-4.30;99.90
21167;DHT22;10741;52.272;9.580;2023-03-01T03:53:24;-4.30;99.90
21167;DHT22;10741;52.272;9.580;2023-03-01T03:55:50;-4.30;99.90
21167;DHT22;10741;52.272;9.580;2023-03-01T03:58:17;-4.40;99.90
21167;DHT22;10741;52.272;9.580;2023-03-01T04:00:47;-4.40;99.90
21167;DHT22;10741;52.272;9.580;2023-03-01T04:03:14;-4.50;99.90
21167;DHT22;10741;52.272;9.580;2023-03-01T04:05:41;-4.50;99.90
21167;DHT22;10741;52.272;9.580;2023-03-01T04:08:07;-4.50;99.90
21167;DHT22;10741;52.272;9.580;2023-03-01T04:10:42;-4.50;99.90
21167;DHT22;10741;52.272;9.580;2023-03-01T04:13:11;-4.50;99.90
21167;DHT22;10741;52.272;9.580;2023-03-01T04:15:39;-4.60;99.90
21167;DHT22;10741;52.272;9.580;2023-03-01T04:18:06;-4.60;99.90
21167;DHT22;10741;52.272;9.580;2023-03-01T04:20:34;-4.60;99.90
21167;DHT22;10741;52.272;9.580;2023-03-01T04:23:09;-4.60;99.90
21167;DHT22;10741;52.272;9.580;2023-03-01T04:30:51;-4.70;99.90
21167;DHT22;10741;52.272;9.580;2023-03-01T04:33:18;-4.70;99.90
21167;DHT22;10741;52.272;9.580;2023-03-01T04:35:44;-4.60;99.90
21167;DHT22;10741;52.272;9.580;2023-03-01T04:38:10;-4.60;99.90
21167;DHT22;10741;52.272;9.580;2023-03-01T04:40:36;-4.60;99.90
21167;DHT22;10741;52.272;9.580;2023-03-01T04:43:03;-4.60;99.90
21167;DHT22;10741;52.272;9.580;2023-03-01T04:45:29;-4.60;99.90
21167;DHT22;10741;52.272;9.580;2023-03-01T04:47:54;-4.70;99.90
21167;DHT22;10741;52.272;9.580;2023-03-01T04:50:23;-4.70;99.90
21167;DHT22;10741;52.272;9.580;2023-03-01T04:52:51;-4.70;99.90
21167;DHT22;10741;52.272;9.580;2023-03-01T04:55:18;-4.70;99.90
21167;DHT22;10741;52.272;9.580;2023-03-01T04:57:43;-4.70;99.90
21167;DHT22;10741;52.272;9.580;2023-03-01T05:00:11;-4.70;99.90
21167;DHT22;10741;52.272;9.580;2023-03-01T05:05:20;-4.70;99.90
21167;DHT22;10741;52.272;9.580;2023-03-01T05:07:46;-4.80;99.90
21167;DHT22;10741;52.272;9.580;2023-03-01T05:10:12;-4.80;99.90
21167;DHT22;10741;52.272;9.580;2023-03-01T05:12:37;-4.80;99.90
21167;DHT22;10741;52.272;9.580;2023-03-01T05:15:04;-4.80;99.90
21167;DHT22;10741;52.272;9.580;2023-03-01T05:17:33;-4.80;99.90
21167;DHT22;10741;52.272;9.580;2023-03-01T05:19:59;-4.80;99.90
21167;DHT22;10741;52.272;9.580;2023-03-01T05:22:26;-4.90;99.90
21167;DHT22;10741;52.272;9.580;2023-03-01T05:24:52;-4.90;99.90
21167;DHT22;10741;52.272;9.580;2023-03-01T05:27:19;-4.90;99.90
21167;DHT22;10741;52.272;9.580;2023-03-01T05:29:48;-4.90;99.90
21167;DHT22;10741;52.272;9.580;2023-03-01T05:32:13;-4.90;99.90
21167;DHT22;10741;52.272;9.580;2023-03-01T05:34:41;-4.80;99.90
21167;DHT22;10741;52.272;9.580;2023-03-01T05:37:07;-4.80;99.90
21167;DHT22;10741;52.272;9.580;2023-03-01T05:39:34;-4.80;99.90
21167;DHT22;10741;52.272;9.580;2023-03-01T05:42:01;-4.90;99.90
21167;DHT22;10741;52.272;9.580;2023-03-01T05:44:28;-4.90;99.90
21167;DHT22;10741;52.272;9.580;2023-03-01T05:46:54;-4.90;99.90
21167;DHT22;10741;52.272;9.580;2023-03-01T05:49:20;-5.00;99.90
21167;DHT22;10741;52.272;9.580;2023-03-01T05:51:50;-5.00;99.90
21167;DHT22;10741;52.272;9.580;2023-03-01T05:54:16;-5.00;99.90
21167;DHT22;10741;52.272;9.580;2023-03-01T05:56:43;-4.90;99.90
21167;DHT22;10741;52.272;9.580;2023-03-01T05:59:09;-5.00;99.90
21167;DHT22;10741;52.272;9.580;2023-03-01T06:01:35;-5.00;99.90
21167;DHT22;10741;52.272;9.580;2023-03-01T06:04:02;-5.00;99.90
21167;DHT22;10741;52.272;9.580;2023-03-01T06:06:28;-4.60;99.90
21167;DHT22;10741;52.272;9.580;2023-03-01T06:08:54;-4.90;99.90
21167;DHT22;10741;52.272;9.580;2023-03-01T06:11:21;-4.90;99.90
21167;DHT22;10741;52.272;9.580;2023-03-01T06:13:47;-4.90;99.90
21167;DHT22;10741;52.272;9.580;2023-03-01T06:16:13;-4.90;99.90
21167;DHT22;10741;52.272;9.580;2023-03-01T06:18:39;-4.90;99.90
21167;DHT22;10741;52.272;9.580;2023-03-01T06:21:06;-4.90;99.90
21167;DHT22;10741;52.272;9.580;2023-03-01T06:23:32;-4.90;99.90
21167;DHT22;10741;52.272;9.580;2023-03-01T06:25:58;-4.90;99.90
21167;DHT22;10741;52.272;9.580;2023-03-01T06:28:25;-4.90;99.90
21167;DHT22;10741;52.272;9.580;2023-03-01T06:30:51;-4.80;99.90
21167;DHT22;10741;52.272;9.580;2023-03-01T06:33:18;-4.80;99.90
21167;DHT22;10741;52.272;9.580;2023-03-01T06:35:46;-4.70;99.90
21167;DHT22;10741;52.272;9.580;2023-03-01T06:38:12;-4.70;99.90
21167;DHT22;10741;52.272;9.580;2023-03-01T06:40:40;-4.70;99.90
21167;DHT22;10741;52.272;9.580;2023-03-01T06:43:06;-4.60;99.90
21167;DHT22;10741;52.272;9.580;2023-03-01T06:45:33;-4.50;99.90
21167;DHT22;10741;52.272;9.580;2023-03-01T06:48:06;-4.50;99.90
21167;DHT22;10741;52.272;9.580;2023-03-01T06:50:33;-4.40;99.90
21167;DHT22;10741;52.272;9.580;2023-03-01T06:52:59;-4.30;99.90
21167;DHT22;10741;52.272;9.580;2023-03-01T06:55:25;-4.30;99.90
21167;DHT22;10741;52.272;9.580;2023-03-01T06:57:55;-4.10;99.90
21167;DHT22;10741;52.272;9.580;2023-03-01T07:00:22;-4.00;99.90
21167;DHT22;10741;52.272;9.580;2023-03-01T07:02:48;-3.70;99.90
21167;DHT22;10741;52.272;9.580;2023-03-01T07:05:14;-3.40;99.90
21167;DHT22;10741;52.272;9.580;2023-03-01T07:07:39;-3.10;99.90
21167;DHT22;10741;52.272;9.580;2023-03-01T07:10:06;-2.80;99.90
21167;DHT22;10741;52.272;9.580;2023-03-01T07:12:32;-2.60;99.90
21167;DHT22;10741;52.272;9.580;2023-03-01T07:14:58;-2.30;99.90
21167;DHT22;10741;52.272;9.580;2023-03-01T07:17:23;-2.00;99.90
21167;DHT22;10741;52.272;9.580;2023-03-01T07:19:49;-1.70;99.90
21167;DHT22;10741;52.272;9.580;2023-03-01T07:22:15;-1.40;99.90
21167;DHT22;10741;52.272;9.580;2023-03-01T07:24:41;-1.10;99.90
21167;DHT22;10741;52.272;9.580;2023-03-01T07:27:08;-0.70;99.90
21167;DHT22;10741;52.272;9.580;2023-03-01T07:29:33;-0.30;99.90
21167;DHT22;10741;52.272;9.580;2023-03-01T07:32:02;-0.10;99.90
21167;DHT22;10741;52.272;9.580;2023-03-01T07:34:28;0.20;99.90
21167;DHT22;10741;52.272;9.580;2023-03-01T07:36:54;0.40;99.90
21167;DHT22;10741;52.272;9.580;2023-03-01T07:39:20;0.60;99.90
21167;DHT22;10741;52.272;9.580;2023-03-01T07:41:45;0.90;99.90
21167;DHT22;10741;52.272;9.580;2023-03-01T07:44:11;1.20;99.90
21167;DHT22;10741;52.272;9.580;2023-03-01T07:46:37;1.50;99.90
21167;DHT22;10741;52.272;9.580;2023-03-01T07:49:03;2.00;99.90
21167;DHT22;10741;52.272;9.580;2023-03-01T07:51:30;2.40;99.90
21167;DHT22;10741;52.272;9.580;2023-03-01T07:53:55;2.70;99.90
21167;DHT22;10741;52.272;9.580;2023-03-01T07:56:21;2.70;99.90
21167;DHT22;10741;52.272;9.580;2023-03-01T07:58:47;2.80;99.90
21167;DHT22;10741;52.272;9.580;2023-03-01T08:01:16;2.90;99.90
21167;DHT22;10741;52.272;9.580;2023-03-01T08:03:42;2.90;99.90
21167;DHT22;10741;52.272;9.580;2023-03-01T08:06:10;2.90;99.90
21167;DHT22;10741;52.272;9.580;2023-03-01T08:08:36;3.30;99.90
21167;DHT22;10741;52.272;9.580;2023-03-01T08:11:04;3.70;99.90
21167;DHT22;10741;52.272;9.580;2023-03-01T08:13:31;4.10;99.90
21167;DHT22;10741;52.272;9.580;2023-03-01T08:16:04;4.50;99.90
21167;DHT22;10741;52.272;9.580;2023-03-01T08:18:34;4.80;99.90
21167;DHT22;10741;52.272;9.580;2023-03-01T08:21:09;5.10;99.90
21167;DHT22;10741;52.272;9.580;2023-03-01T08:23:35;5.20;99.90
21167;DHT22;10741;52.272;9.580;2023-03-01T08:26:20;5.60;99.90
21167;DHT22;10741;52.272;9.580;2023-03-01T08:28:48;6.20;99.90
21167;DHT22;10741;52.272;9.580;2023-03-01T08:31:23;7.20;99.90
21167;DHT22;10741;52.272;9.580;2023-03-01T08:33:52;7.20;99.90
21167;DHT22;10741;52.272;9.580;2023-03-01T08:36:22;7.20;99.90
21167;DHT22;10741;52.272;9.580;2023-03-01T08:38:48;7.80;99.90
21167;DHT22;10741;52.272;9.580;2023-03-01T08:41:14;7.90;99.90
21167;DHT22;10741;52.272;9.580;2023-03-01T08:43:40;7.90;99.90
21167;DHT22;10741;52.272;9.580;2023-03-01T08:46:06;8.40;99.90
21167;DHT22;10741;52.272;9.580;2023-03-01T08:48:32;9.00;99.90
21167;DHT22;10741;52.272;9.580;2023-03-01T08:51:07;9.60;99.90
21167;DHT22;10741;52.272;9.580;2023-03-01T08:53:33;9.10;98.80
21167;DHT22;10741;52.272;9.580;2023-03-01T08:56:03;8.90;98.90
21167;DHT22;10741;52.272;9.580;2023-03-01T08:58:29;8.40;99.90
21167;DHT22;10741;52.272;9.580;2023-03-01T09:00:55;8.60;99.90
21167;DHT22;10741;52.272;9.580;2023-03-01T09:03:25;9.30;99.30
21167;DHT22;10741;52.272;9.580;2023-03-01T09:05:52;9.30;96.90
21167;DHT22;10741;52.272;9.580;2023-03-01T09:08:18;8.90;98.00
21167;DHT22;10741;52.272;9.580;2023-03-01T09:10:44;9.20;98.40
21167;DHT22;10741;52.272;9.580;2023-03-01T09:13:10;9.90;96.40
21167;DHT22;10741;52.272;9.580;2023-03-01T09:15:39;10.10;97.40
21167;DHT22;10741;52.272;9.580;2023-03-01T09:18:05;10.10;95.30
21167;DHT22;10741;52.272;9.580;2023-03-01T09:20:31;10.30;97.00
21167;DHT22;10741;52.272;9.580;2023-03-01T09:22:58;9.80;97.80
21167;DHT22;10741;52.272;9.580;2023-03-01T09:25:24;10.20;96.00
21167;DHT22;10741;52.272;9.580;2023-03-01T09:27:53;10.20;98.00
21167;DHT22;10741;52.272;9.580;2023-03-01T09:30:19;10.20;95.90
21167;DHT22;10741;52.272;9.580;2023-03-01T09:32:45;10.10;95.50
21167;DHT22;10741;52.272;9.580;2023-03-01T09:35:12;9.80;96.20
21167;DHT22;10741;52.272;9.580;2023-03-01T09:37:38;9.00;97.20
21167;DHT22;10741;52.272;9.580;2023-03-01T09:40:28;8.90;96.90
21167;DHT22;10741;52.272;9.580;2023-03-01T09:43:11;8.70;97.90
21167;DHT22;10741;52.272;9.580;2023-03-01T09:45:44;8.50;98.10
21167;DHT22;10741;52.272;9.580;2023-03-01T09:48:16;7.90;99.90
21167;DHT22;10741;52.272;9.580;2023-03-01T09:50:44;8.30;98.60
21167;DHT22;10741;52.272;9.580;2023-03-01T09:53:23;8.10;98.60
21167;DHT22;10741;52.272;9.580;2023-03-01T09:56:05;8.00;98.70
21167;DHT22;10741;52.272;9.580;2023-03-01T10:07:11;8.10;99.20
21167;DHT22;10741;52.272;9.580;2023-03-01T10:09:42;8.40;99.80
21167;DHT22;10741;52.272;9.580;2023-03-01T10:12:21;8.50;98.70
21167;DHT22;10741;52.272;9.580;2023-03-01T10:15:14;8.50;98.50
21167;DHT22;10741;52.272;9.580;2023-03-01T10:18:04;8.10;99.10
21167;DHT22;10741;52.272;9.580;2023-03-01T10:23:50;8.10;99.10
21167;DHT22;10741;52.272;9.580;2023-03-01T10:26:38;8.00;99.70
21167;DHT22;10741;52.272;9.580;2023-03-01T10:29:08;7.80;99.90
21167;DHT22;10741;52.272;9.580;2023-03-01T10:31:40;7.50;99.90
21167;DHT22;10741;52.272;9.580;2023-03-01T10:34:11;7.00;99.90
21167;DHT22;10741;52.272;9.580;2023-03-01T10:36:38;6.80;99.90
21167;DHT22;10741;52.272;9.580;2023-03-01T10:39:12;6.80;99.90
21167;DHT22;10741;52.272;9.580;2023-03-01T10:41:56;6.90;99.90
21167;DHT22;10741;52.272;9.580;2023-03-01T10:44:47;6.80;99.90
21167;DHT22;10741;52.272;9.580;2023-03-01T10:47:17;7.00;99.90
21167;DHT22;10741;52.272;9.580;2023-03-01T10:50:02;7.20;99.90
21167;DHT22;10741;52.272;9.580;2023-03-01T10:52:40;7.60;99.90
21167;DHT22;10741;52.272;9.580;2023-03-01T10:57:39;7.50;99.90
21167;DHT22;10741;52.272;9.580;2023-03-01T11:00:22;7.60;99.90
21167;DHT22;10741;52.272;9.580;2023-03-01T11:03:13;8.10;99.90
21167;DHT22;10741;52.272;9.580;2023-03-01T11:06:35;8.10;99.50
21167;DHT22;10741;52.272;9.580;2023-03-01T11:11:07;8.40;98.80
21167;DHT22;10741;52.272;9.580;2023-03-01T11:16:29;8.50;98.40
21167;DHT22;10741;52.272;9.580;2023-03-01T11:19:07;8.60;98.20
21167;DHT22;10741;52.272;9.580;2023-03-01T11:21:52;8.80;97.40
21167;DHT22;10741;52.272;9.580;2023-03-01T11:24:30;9.30;97.10
21167;DHT22;10741;52.272;9.580;2023-03-01T11:27:00;9.10;97.70
21167;DHT22;10741;52.272;9.580;2023-03-01T11:29:32;9.20;97.60
21167;DHT22;10741;52.272;9.580;2023-03-01T11:32:01;9.10;96.50
21167;DHT22;10741;52.272;9.580;2023-03-01T11:37:38;8.70;96.60
21167;DHT22;10741;52.272;9.580;2023-03-01T11:43:18;8.40;97.50
21167;DHT22;10741;52.272;9.580;2023-03-01T11:51:33;9.50;96.10
21167;DHT22;10741;52.272;9.580;2023-03-01T11:54:34;9.20;95.80
21167;DHT22;10741;52.272;9.580;2023-03-01T12:03:12;9.80;95.30
21167;DHT22;10741;52.272;9.580;2023-03-01T12:06:00;10.10;94.30
21167;DHT22;10741;52.272;9.580;2023-03-01T12:40:13;11.80;88.60
21167;DHT22;10741;52.272;9.580;2023-03-01T12:42:50;12.10;89.10
21167;DHT22;10741;52.272;9.580;2023-03-01T12:50:52;12.50;87.20
21167;DHT22;10741;52.272;9.580;2023-03-01T12:53:25;12.70;87.80
21167;DHT22;10741;52.272;9.580;2023-03-01T12:55:53;12.60;86.30
21167;DHT22;10741;52.272;9.580;2023-03-01T13:09:22;13.20;84.60
21167;DHT22;10741;52.272;9.580;2023-03-01T13:11:50;13.50;82.10
21167;DHT22;10741;52.272;9.580;2023-03-01T13:16:49;12.40;83.70
21167;DHT22;10741;52.272;9.580;2023-03-01T13:19:20;12.70;82.60
21167;DHT22;10741;52.272;9.580;2023-03-01T13:21:47;12.80;83.10
21167;DHT22;10741;52.272;9.580;2023-03-01T13:29:56;13.30;82.00
21167;DHT22;10741;52.272;9.580;2023-03-01T13:32:25;13.20;81.50
21167;DHT22;10741;52.272;9.580;2023-03-01T13:37:45;13.70;81.40
21167;DHT22;10741;52.272;9.580;2023-03-01T13:42:48;14.00;79.90
21167;DHT22;10741;52.272;9.580;2023-03-01T13:48:11;13.80;83.50
21167;DHT22;10741;52.272;9.580;2023-03-01T13:50:47;13.80;79.50
21167;DHT22;10741;52.272;9.580;2023-03-01T13:53:18;13.30;80.20
21167;DHT22;10741;52.272;9.580;2023-03-01T13:55:47;13.00;82.00
21167;DHT22;10741;52.272;9.580;2023-03-01T14:01:00;13.10;82.60
21167;DHT22;10741;52.272;9.580;2023-03-01T14:03:28;13.70;80.00
21167;DHT22;10741;52.272;9.580;2023-03-01T14:06:07;13.60;77.90
21167;DHT22;10741;52.272;9.580;2023-03-01T14:08:35;13.30;79.80
21167;DHT22;10741;52.272;9.580;2023-03-01T14:17:16;12.80;77.90
21167;DHT22;10741;52.272;9.580;2023-03-01T14:19:47;13.30;77.60
21167;DHT22;10741;52.272;9.580;2023-03-01T14:22:24;13.20;77.90
21167;DHT22;10741;52.272;9.580;2023-03-01T14:25:02;13.50;75.50
21167;DHT22;10741;52.272;9.580;2023-03-01T14:27:38;13.30;75.70
21167;DHT22;10741;52.272;9.580;2023-03-01T14:33:01;13.60;74.60
21167;DHT22;10741;52.272;9.580;2023-03-01T14:35:33;13.70;73.90
21167;DHT22;10741;52.272;9.580;2023-03-01T14:37:59;13.60;73.30
21167;DHT22;10741;52.272;9.580;2023-03-01T14:40:27;13.60;75.50
21167;DHT22;10741;52.272;9.580;2023-03-01T14:42:56;13.30;75.50
21167;DHT22;10741;52.272;9.580;2023-03-01T14:45:25;13.00;78.50
21167;DHT22;10741;52.272;9.580;2023-03-01T14:47:52;12.90;78.50
21167;DHT22;10741;52.272;9.580;2023-03-01T14:50:25;12.80;76.00
21167;DHT22;10741;52.272;9.580;2023-03-01T14:52:57;12.60;76.50
21167;DHT22;10741;52.272;9.580;2023-03-01T14:55:34;12.30;77.70
21167;DHT22;10741;52.272;9.580;2023-03-01T14:58:04;12.60;77.70
21167;DHT22;10741;52.272;9.580;2023-03-01T15:00:32;12.40;79.20
21167;DHT22;10741;52.272;9.580;2023-03-01T15:03:06;12.20;79.60
21167;DHT22;10741;52.272;9.580;2023-03-01T15:05:39;12.20;78.90
21167;DHT22;10741;52.272;9.580;2023-03-01T15:08:06;12.50;77.50
21167;DHT22;10741;52.272;9.580;2023-03-01T15:10:34;12.20;77.60
21167;DHT22;10741;52.272;9.580;2023-03-01T15:15:46;12.00;79.20
21167;DHT22;10741;52.272;9.580;2023-03-01T15:18:27;12.00;77.30
21167;DHT22;10741;52.272;9.580;2023-03-01T15:20:53;11.70;79.40
21167;DHT22;10741;52.272;9.580;2023-03-01T15:23:27;11.50;80.70
21167;DHT22;10741;52.272;9.580;2023-03-01T15:25:54;11.00;81.30
21167;DHT22;10741;52.272;9.580;2023-03-01T15:28:29;10.40;85.20
21167;DHT22;10741;52.272;9.580;2023-03-01T15:31:00;9.90;85.90
21167;DHT22;10741;52.272;9.580;2023-03-01T15:33:36;9.20;86.90
21167;DHT22;10741;52.272;9.580;2023-03-01T15:36:29;8.70;88.60
21167;DHT22;10741;52.272;9.580;2023-03-01T15:38:55;8.20;90.10
21167;DHT22;10741;52.272;9.580;2023-03-01T15:41:37;7.90;90.80
21167;DHT22;10741;52.272;9.580;2023-03-01T15:44:28;7.50;90.80
21167;DHT22;10741;52.272;9.580;2023-03-01T15:46:54;7.20;92.10
21167;DHT22;10741;52.272;9.580;2023-03-01T15:49:43;7.00;92.50
21167;DHT22;10741;52.272;9.580;2023-03-01T15:52:25;6.90;92.70
21167;DHT22;10741;52.272;9.580;2023-03-01T15:54:59;6.80;94.40
21167;DHT22;10741;52.272;9.580;2023-03-01T15:57:26;6.60;94.90
21167;DHT22;10741;52.272;9.580;2023-03-01T15:59:52;6.50;95.60
21167;DHT22;10741;52.272;9.580;2023-03-01T16:02:18;6.40;94.90
21167;DHT22;10741;52.272;9.580;2023-03-01T16:04:47;6.30;95.60
21167;DHT22;10741;52.272;9.580;2023-03-01T16:07:14;6.20;96.40
21167;DHT22;10741;52.272;9.580;2023-03-01T16:09:40;6.10;97.20
21167;DHT22;10741;52.272;9.580;2023-03-01T16:12:08;6.00;97.10
21167;DHT22;10741;52.272;9.580;2023-03-01T16:14:37;5.90;97.80
21167;DHT22;10741;52.272;9.580;2023-03-01T16:17:03;5.80;98.30
21167;DHT22;10741;52.272;9.580;2023-03-01T16:19:29;5.70;98.80
21167;DHT22;10741;52.272;9.580;2023-03-01T16:21:54;5.60;99.50
21167;DHT22;10741;52.272;9.580;2023-03-01T16:24:20;5.50;99.90
21167;DHT22;10741;52.272;9.580;2023-03-01T16:26:46;5.40;99.90
21167;DHT22;10741;52.272;9.580;2023-03-01T16:29:11;5.20;99.90
21167;DHT22;10741;52.272;9.580;2023-03-01T16:31:37;5.10;99.90
21167;DHT22;10741;52.272;9.580;2023-03-01T16:34:03;5.00;99.90
21167;DHT22;10741;52.272;9.580;2023-03-01T16:36:29;4.90;99.90
21167;DHT22;10741;52.272;9.580;2023-03-01T16:38:57;4.80;99.90
21167;DHT22;10741;52.272;9.580;2023-03-01T16:41:24;4.70;99.90
21167;DHT22;10741;52.272;9.580;2023-03-01T16:43:50;4.50;99.90
21167;DHT22;10741;52.272;9.580;2023-03-01T16:46:27;4.40;99.90
21167;DHT22;10741;52.272;9.580;2023-03-01T16:48:54;4.30;99.90
21167;DHT22;10741;52.272;9.580;2023-03-01T16:51:21;4.20;99.90
21167;DHT22;10741;52.272;9.580;2023-03-01T16:53:47;4.00;99.90
21167;DHT22;10741;52.272;9.580;2023-03-01T16:56:14;4.00;99.90
21167;DHT22;10741;52.272;9.580;2023-03-01T16:58:41;3.80;99.90
21167;DHT22;10741;52.272;9.580;2023-03-01T17:01:14;3.70;99.90
21167;DHT22;10741;52.272;9.580;2023-03-01T17:03:41;3.60;99.90
21167;DHT22;10741;52.272;9.580;2023-03-01T17:06:13;3.40;99.90
21167;DHT22;10741;52.272;9.580;2023-03-01T17:08:40;3.30;99.90
21167;DHT22;10741;52.272;9.580;2023-03-01T17:11:12;3.20;99.90
21167;DHT22;10741;52.272;9.580;2023-03-01T17:13:38;3.10;99.90
21167;DHT22;10741;52.272;9.580;2023-03-01T17:16:06;2.90;99.90
21167;DHT22;10741;52.272;9.580;2023-03-01T17:18:32;2.80;99.90
21167;DHT22;10741;52.272;9.580;2023-03-01T17:20:58;2.70;99.90
21167;DHT22;10741;52.272;9.580;2023-03-01T17:23:25;2.50;99.90
21167;DHT22;10741;52.272;9.580;2023-03-01T17:25:52;2.40;99.90
21167;DHT22;10741;52.272;9.580;2023-03-01T17:28:21;2.20;99.90
21167;DHT22;10741;52.272;9.580;2023-03-01T17:30:47;2.10;99.90
21167;DHT22;10741;52.272;9.580;2023-03-01T17:33:13;2.00;99.90
21167;DHT22;10741;52.272;9.580;2023-03-01T17:35:39;1.90;99.90
21167;DHT22;10741;52.272;9.580;2023-03-01T17:38:06;1.80;99.90
21167;DHT22;10741;52.272;9.580;2023-03-01T17:40:32;1.70;99.90
21167;DHT22;10741;52.272;9.580;2023-03-01T17:43:00;1.60;99.90
21167;DHT22;10741;52.272;9.580;2023-03-01T17:45:27;1.50;99.90
21167;DHT22;10741;52.272;9.580;2023-03-01T17:47:53;1.40;99.90
21167;DHT22;10741;52.272;9.580;2023-03-01T17:50:18;1.30;99.90
21167;DHT22;10741;52.272;9.580;2023-03-01T17:52:44;1.20;99.90
21167;DHT22;10741;52.272;9.580;2023-03-01T17:55:10;1.10;99.90
21167;DHT22;10741;52.272;9.580;2023-03-01T17:57:39;1.00;99.90
21167;DHT22;10741;52.272;9.580;2023-03-01T18:00:10;1.00;99.90
21167;DHT22;10741;52.272;9.580;2023-03-01T18:02:37;1.00;99.90
21167;DHT22;10741;52.272;9.580;2023-03-01T18:05:03;0.90;99.90